sensor_id;sensor_type;location;lat;lon;timestamp;P1;durP1;ratioP1;P2;durP2;ratioP2
77117;SDS011;66072;50.238;19.228;2023-03-05T00:01:19;14.50;;;5.80;;
77117;SDS011;66072;50.238;19.228;2023-03-05T00:03:50;10.60;;;4.70;;
77117;SDS011;66072;50.238;19.228;2023-03-05T00:06:20;16.40;;;7.10;;
77117;SDS011;66072;50.238;19.228;2023-03-05T00:08:49;11.70;;;5.50;;
77117;SDS011;66072;50.238;19.228;2023-03-05T00:11:16;11.50;;;5.20;;
77117;SDS011;66072;50.238;19.228;2023-03-05T00:13:44;12.70;;;6.50;;
77117;SDS011;66072;50.238;19.228;2023-03-05T00:16:13;14.00;;;7.00;;
77117;SDS011;66072;50.238;19.228;2023-03-05T00:18:42;10.50;;;5.90;;
77117;SDS011;66072;50.238;19.228;2023-03-05T00:21:17;14.80;;;6.50;;
77117;SDS011;66072;50.238;19.228;2023-03-05T00:23:48;14.20;;;5.80;;
77117;SDS011;66072;50.238;19.228;2023-03-05T00:26:19;11.90;;;5.90;;
77117;SDS011;66072;50.238;19.228;2023-03-05T00:28:49;14.10;;;7.70;;
77117;SDS011;66072;50.238;19.228;2023-03-05T00:31:20;15.50;;;6.70;;
77117;SDS011;66072;50.238;19.228;2023-03-05T00:33:50;14.00;;;7.20;;
77117;SDS011;66072;50.238;19.228;2023-03-05T00:36:19;11.80;;;4.80;;
77117;SDS011;66072;50.238;19.228;2023-03-05T00:38:47;8.70;;;4.30;;
77117;SDS011;66072;50.238;19.228;2023-03-05T00:41:14;8.80;;;4.20;;
77117;SDS011;66072;50.238;19.228;2023-03-05T00:43:42;9.60;;;4.20;;
77117;SDS011;66072;50.238;19.228;2023-03-05T00:46:10;7.80;;;4.00;;
77117;SDS011;66072;50.238;19.228;2023-03-05T00:48:37;7.80;;;4.00;;
77117;SDS011;66072;50.238;19.228;2023-03-05T00:51:05;6.80;;;3.60;;
77117;SDS011;66072;50.238;19.228;2023-03-05T00:53:32;5.60;;;2.90;;
77117;SDS011;66072;50.238;19.228;2023-03-05T00:56:00;8.30;;;3.40;;
77117;SDS011;66072;50.238;19.228;2023-03-05T00:58:28;7.80;;;3.40;;
77117;SDS011;66072;50.238;19.228;2023-03-05T01:00:59;5.70;;;3.40;;
77117;SDS011;66072;50.238;19.228;2023-03-05T01:03:27;5.40;;;3.10;;
77117;SDS011;66072;50.238;19.228;2023-03-05T01:05:56;6.90;;;3.90;;
77117;SDS011;66072;50.238;19.228;2023-03-05T01:08:24;9.50;;;4.00;;
77117;SDS011;66072;50.238;19.228;2023-03-05T01:10:52;5.60;;;3.10;;
77117;SDS011;66072;50.238;19.228;2023-03-05T01:13:19;7.20;;;3.90;;
77117;SDS011;66072;50.238;19.228;2023-03-05T01:15:47;6.90;;;3.90;;
77117;SDS011;66072;50.238;19.228;2023-03-05T01:18:16;5.90;;;3.80;;
77117;SDS011;66072;50.238;19.228;2023-03-05T01:20:44;9.20;;;3.90;;
77117;SDS011;66072;50.238;19.228;2023-03-05T01:23:12;6.50;;;3.80;;
77117;SDS011;66072;50.238;19.228;2023-03-05T01:25:40;8.30;;;3.80;;
77117;SDS011;66072;50.238;19.228;2023-03-05T01:28:08;7.90;;;3.00;;
77117;SDS011;66072;50.238;19.228;2023-03-05T01:30:36;5.00;;;3.30;;
77117;SDS011;66072;50.238;19.228;2023-03-05T01:33:03;4.80;;;3.20;;
77117;SDS011;66072;50.238;19.228;2023-03-05T01:35:31;5.60;;;3.20;;
77117;SDS011;66072;50.238;19.228;2023-03-05T01:37:59;5.80;;;3.10;;
77117;SDS011;66072;50.238;19.228;2023-03-05T01:40:27;6.60;;;2.80;;
77117;SDS011;66072;50.238;19.228;2023-03-05T01:43:07;5.60;;;2.50;;
77117;SDS011;66072;50.238;19.228;2023-03-05T01:48:51;6.10;;;2.60;;
77117;SDS011;66072;50.238;19.228;2023-03-05T01:51:23;6.00;;;2.70;;
77117;SDS011;66072;50.238;19.228;2023-03-05T01:53:53;5.40;;;2.60;;
77117;SDS011;66072;50.238;19.228;2023-03-05T01:56:22;4.40;;;2.10;;
77117;SDS011;66072;50.238;19.228;2023-03-05T01:58:50;5.70;;;3.30;;
77117;SDS011;66072;50.238;19.228;2023-03-05T02:01:19;5.50;;;3.60;;
77117;SDS011;66072;50.238;19.228;2023-03-05T02:03:47;6.90;;;3.50;;
77117;SDS011;66072;50.238;19.228;2023-03-05T02:06:15;5.30;;;2.80;;
77117;SDS011;66072;50.238;19.228;2023-03-05T02:08:43;7.30;;;3.30;;
77117;SDS011;66072;50.238;19.228;2023-03-05T02:11:10;7.20;;;3.30;;
77117;SDS011;66072;50.238;19.228;2023-03-05T02:13:38;6.30;;;2.80;;
77117;SDS011;66072;50.238;19.228;2023-03-05T02:16:06;5.30;;;2.70;;
77117;SDS011;66072;50.238;19.228;2023-03-05T02:18:34;9.20;;;2.90;;
77117;SDS011;66072;50.238;19.228;2023-03-05T02:23:31;6.50;;;2.80;;
77117;SDS011;66072;50.238;19.228;2023-03-05T02:26:01;5.40;;;2.40;;
77117;SDS011;66072;50.238;19.228;2023-03-05T02:28:49;7.70;;;2.60;;
77117;SDS011;66072;50.238;19.228;2023-03-05T02:31:22;6.60;;;2.90;;
77117;SDS011;66072;50.238;19.228;2023-03-05T02:33:51;6.20;;;2.50;;
77117;SDS011;66072;50.238;19.228;2023-03-05T02:36:19;4.60;;;2.60;;
77117;SDS011;66072;50.238;19.228;2023-03-05T02:38:47;6.60;;;3.20;;
77117;SDS011;66072;50.238;19.228;2023-03-05T02:41:15;6.50;;;3.10;;
77117;SDS011;66072;50.238;19.228;2023-03-05T02:43:42;5.50;;;2.30;;
77117;SDS011;66072;50.238;19.228;2023-03-05T02:46:10;6.30;;;2.60;;
77117;SDS011;66072;50.238;19.228;2023-03-05T02:48:38;5.80;;;3.00;;
77117;SDS011;66072;50.238;19.228;2023-03-05T02:51:05;6.60;;;3.10;;
77117;SDS011;66072;50.238;19.228;2023-03-05T02:53:34;4.20;;;2.50;;
77117;SDS011;66072;50.238;19.228;2023-03-05T02:56:02;6.00;;;2.70;;
77117;SDS011;66072;50.238;19.228;2023-03-05T02:58:29;6.50;;;2.60;;
77117;SDS011;66072;50.238;19.228;2023-03-05T03:00:57;6.10;;;2.30;;
77117;SDS011;66072;50.238;19.228;2023-03-05T03:03:25;5.60;;;2.80;;
77117;SDS011;66072;50.238;19.228;2023-03-05T03:05:52;7.50;;;3.10;;
77117;SDS011;66072;50.238;19.228;2023-03-05T03:08:20;5.60;;;2.90;;
77117;SDS011;66072;50.238;19.228;2023-03-05T03:10:48;11.50;;;6.30;;
77117;SDS011;66072;50.238;19.228;2023-03-05T03:13:15;11.60;;;6.40;;
77117;SDS011;66072;50.238;19.228;2023-03-05T03:15:43;11.20;;;6.60;;
77117;SDS011;66072;50.238;19.228;2023-03-05T03:18:10;9.40;;;5.50;;
77117;SDS011;66072;50.238;19.228;2023-03-05T03:20:38;14.60;;;6.60;;
77117;SDS011;66072;50.238;19.228;2023-03-05T03:23:06;16.20;;;7.80;;
77117;SDS011;66072;50.238;19.228;2023-03-05T03:25:33;17.70;;;8.60;;
77117;SDS011;66072;50.238;19.228;2023-03-05T03:28:01;18.40;;;9.60;;
77117;SDS011;66072;50.238;19.228;2023-03-05T03:30:28;15.50;;;8.80;;
77117;SDS011;66072;50.238;19.228;2023-03-05T03:32:56;14.80;;;7.80;;
77117;SDS011;66072;50.238;19.228;2023-03-05T03:35:24;17.50;;;9.20;;
77117;SDS011;66072;50.238;19.228;2023-03-05T03:37:51;14.30;;;9.10;;
77117;SDS011;66072;50.238;19.228;2023-03-05T03:40:19;20.40;;;11.10;;
77117;SDS011;66072;50.238;19.228;2023-03-05T03:42:46;26.30;;;12.50;;
77117;SDS011;66072;50.238;19.228;2023-03-05T03:45:14;28.80;;;13.50;;
77117;SDS011;66072;50.238;19.228;2023-03-05T03:47:42;21.60;;;12.20;;
77117;SDS011;66072;50.238;19.228;2023-03-05T03:50:10;29.70;;;14.00;;
77117;SDS011;66072;50.238;19.228;2023-03-05T03:52:38;23.60;;;11.60;;
77117;SDS011;66072;50.238;19.228;2023-03-05T03:55:05;25.50;;;12.20;;
77117;SDS011;66072;50.238;19.228;2023-03-05T03:57:33;17.80;;;9.90;;
77117;SDS011;66072;50.238;19.228;2023-03-05T04:00:01;17.00;;;9.30;;
77117;SDS011;66072;50.238;19.228;2023-03-05T04:02:30;16.50;;;9.80;;
77117;SDS011;66072;50.238;19.228;2023-03-05T04:04:58;19.40;;;11.20;;
77117;SDS011;66072;50.238;19.228;2023-03-05T04:07:25;16.00;;;9.80;;
77117;SDS011;66072;50.238;19.228;2023-03-05T04:09:53;15.40;;;8.70;;
77117;SDS011;66072;50.238;19.228;2023-03-05T04:12:21;14.90;;;8.90;;
77117;SDS011;66072;50.238;19.228;2023-03-05T04:14:48;15.00;;;8.70;;
77117;SDS011;66072;50.238;19.228;2023-03-05T04:17:16;12.60;;;7.70;;
77117;SDS011;66072;50.238;19.228;2023-03-05T04:19:44;14.50;;;9.00;;
77117;SDS011;66072;50.238;19.228;2023-03-05T04:22:13;15.60;;;8.50;;
77117;SDS011;66072;50.238;19.228;2023-03-05T04:24:42;14.40;;;7.10;;
77117;SDS011;66072;50.238;19.228;2023-03-05T04:27:10;12.80;;;6.30;;
77117;SDS011;66072;50.238;19.228;2023-03-05T04:29:38;11.50;;;7.30;;
77117;SDS011;66072;50.238;19.228;2023-03-05T04:32:05;12.80;;;7.30;;
77117;SDS011;66072;50.238;19.228;2023-03-05T04:34:35;10.90;;;6.30;;
77117;SDS011;66072;50.238;19.228;2023-03-05T04:37:03;13.80;;;7.00;;
77117;SDS011;66072;50.238;19.228;2023-03-05T04:39:31;16.40;;;8.30;;
77117;SDS011;66072;50.238;19.228;2023-03-05T04:41:59;12.20;;;7.10;;
77117;SDS011;66072;50.238;19.228;2023-03-05T04:44:26;15.80;;;7.70;;
77117;SDS011;66072;50.238;19.228;2023-03-05T04:46:54;17.40;;;9.30;;
77117;SDS011;66072;50.238;19.228;2023-03-05T04:49:21;16.50;;;9.20;;
77117;SDS011;66072;50.238;19.228;2023-03-05T04:51:49;18.00;;;10.90;;
77117;SDS011;66072;50.238;19.228;2023-03-05T04:54:17;16.20;;;9.80;;
77117;SDS011;66072;50.238;19.228;2023-03-05T04:56:44;17.10;;;8.50;;
77117;SDS011;66072;50.238;19.228;2023-03-05T04:59:12;18.30;;;9.10;;
77117;SDS011;66072;50.238;19.228;2023-03-05T05:01:39;10.50;;;6.80;;
77117;SDS011;66072;50.238;19.228;2023-03-05T05:04:07;9.20;;;6.00;;
77117;SDS011;66072;50.238;19.228;2023-03-05T05:06:35;10.90;;;6.70;;
77117;SDS011;66072;50.238;19.228;2023-03-05T05:09:02;12.20;;;7.50;;
77117;SDS011;66072;50.238;19.228;2023-03-05T05:11:30;12.30;;;7.20;;
77117;SDS011;66072;50.238;19.228;2023-03-05T05:13:58;12.10;;;7.60;;
77117;SDS011;66072;50.238;19.228;2023-03-05T05:16:25;14.00;;;8.10;;
77117;SDS011;66072;50.238;19.228;2023-03-05T05:18:53;14.10;;;7.60;;
77117;SDS011;66072;50.238;19.228;2023-03-05T05:21:21;14.20;;;8.80;;
77117;SDS011;66072;50.238;19.228;2023-03-05T05:23:49;15.00;;;7.70;;
77117;SDS011;66072;50.238;19.228;2023-03-05T05:26:16;14.90;;;8.40;;
77117;SDS011;66072;50.238;19.228;2023-03-05T05:28:44;15.70;;;8.60;;
77117;SDS011;66072;50.238;19.228;2023-03-05T05:31:12;15.40;;;9.00;;
77117;SDS011;66072;50.238;19.228;2023-03-05T05:36:11;11.00;;;6.80;;
77117;SDS011;66072;50.238;19.228;2023-03-05T05:38:41;16.90;;;8.80;;
77117;SDS011;66072;50.238;19.228;2023-03-05T05:41:10;18.60;;;9.00;;
77117;SDS011;66072;50.238;19.228;2023-03-05T05:43:39;19.10;;;10.20;;
77117;SDS011;66072;50.238;19.228;2023-03-05T05:46:09;18.30;;;8.80;;
77117;SDS011;66072;50.238;19.228;2023-03-05T05:48:39;12.40;;;8.30;;
77117;SDS011;66072;50.238;19.228;2023-03-05T05:51:10;19.70;;;11.10;;
77117;SDS011;66072;50.238;19.228;2023-03-05T05:53:40;15.90;;;8.70;;
77117;SDS011;66072;50.238;19.228;2023-03-05T05:56:09;20.40;;;12.20;;
77117;SDS011;66072;50.238;19.228;2023-03-05T05:58:38;18.00;;;9.80;;
77117;SDS011;66072;50.238;19.228;2023-03-05T06:01:14;19.40;;;11.00;;
77117;SDS011;66072;50.238;19.228;2023-03-05T06:03:46;18.60;;;10.90;;
77117;SDS011;66072;50.238;19.228;2023-03-05T06:06:15;23.00;;;9.70;;
77117;SDS011;66072;50.238;19.228;2023-03-05T06:08:44;14.30;;;9.20;;
77117;SDS011;66072;50.238;19.228;2023-03-05T06:11:12;16.50;;;9.10;;
77117;SDS011;66072;50.238;19.228;2023-03-05T06:13:41;12.60;;;7.20;;
77117;SDS011;66072;50.238;19.228;2023-03-05T06:16:13;14.20;;;8.20;;
77117;SDS011;66072;50.238;19.228;2023-03-05T06:18:43;19.70;;;9.00;;
77117;SDS011;66072;50.238;19.228;2023-03-05T06:21:12;12.60;;;6.70;;
77117;SDS011;66072;50.238;19.228;2023-03-05T06:23:42;13.60;;;7.10;;
77117;SDS011;66072;50.238;19.228;2023-03-05T06:26:11;13.30;;;7.20;;
77117;SDS011;66072;50.238;19.228;2023-03-05T06:28:41;10.40;;;6.00;;
77117;SDS011;66072;50.238;19.228;2023-03-05T06:31:13;10.00;;;4.50;;
77117;SDS011;66072;50.238;19.228;2023-03-05T06:33:45;9.80;;;6.50;;
77117;SDS011;66072;50.238;19.228;2023-03-05T06:36:14;13.70;;;6.90;;
77117;SDS011;66072;50.238;19.228;2023-03-05T06:38:43;10.00;;;6.20;;
77117;SDS011;66072;50.238;19.228;2023-03-05T06:41:12;10.20;;;6.60;;
77117;SDS011;66072;50.238;19.228;2023-03-05T06:43:42;7.20;;;5.00;;
77117;SDS011;66072;50.238;19.228;2023-03-05T06:46:16;8.70;;;5.60;;
77117;SDS011;66072;50.238;19.228;2023-03-05T06:48:46;6.10;;;3.30;;
77117;SDS011;66072;50.238;19.228;2023-03-05T06:51:24;9.70;;;5.00;;
77117;SDS011;66072;50.238;19.228;2023-03-05T06:53:52;8.10;;;4.60;;
77117;SDS011;66072;50.238;19.228;2023-03-05T06:56:21;11.50;;;4.90;;
77117;SDS011;66072;50.238;19.228;2023-03-05T06:58:49;9.90;;;4.90;;
77117;SDS011;66072;50.238;19.228;2023-03-05T07:01:19;8.30;;;4.30;;
77117;SDS011;66072;50.238;19.228;2023-03-05T07:03:50;9.50;;;4.30;;
77117;SDS011;66072;50.238;19.228;2023-03-05T07:06:20;15.00;;;7.40;;
77117;SDS011;66072;50.238;19.228;2023-03-05T07:08:48;14.60;;;8.60;;
77117;SDS011;66072;50.238;19.228;2023-03-05T07:11:17;13.00;;;6.90;;
77117;SDS011;66072;50.238;19.228;2023-03-05T07:13:47;10.30;;;6.20;;
77117;SDS011;66072;50.238;19.228;2023-03-05T07:16:20;12.70;;;7.30;;
77117;SDS011;66072;50.238;19.228;2023-03-05T07:18:50;10.90;;;5.70;;
77117;SDS011;66072;50.238;19.228;2023-03-05T07:21:22;14.60;;;7.90;;
77117;SDS011;66072;50.238;19.228;2023-03-05T07:23:54;9.90;;;5.60;;
77117;SDS011;66072;50.238;19.228;2023-03-05T07:26:24;9.90;;;5.20;;
77117;SDS011;66072;50.238;19.228;2023-03-05T07:28:52;11.80;;;6.20;;
77117;SDS011;66072;50.238;19.228;2023-03-05T07:31:21;14.90;;;8.70;;
77117;SDS011;66072;50.238;19.228;2023-03-05T07:33:50;9.60;;;4.50;;
77117;SDS011;66072;50.238;19.228;2023-03-05T07:36:18;13.00;;;6.70;;
77117;SDS011;66072;50.238;19.228;2023-03-05T07:38:45;13.00;;;6.70;;
77117;SDS011;66072;50.238;19.228;2023-03-05T07:41:15;14.00;;;8.60;;
77117;SDS011;66072;50.238;19.228;2023-03-05T07:43:47;15.00;;;8.50;;
77117;SDS011;66072;50.238;19.228;2023-03-05T07:46:16;13.80;;;7.20;;
77117;SDS011;66072;50.238;19.228;2023-03-05T07:48:47;17.20;;;9.10;;
77117;SDS011;66072;50.238;19.228;2023-03-05T07:51:16;14.80;;;7.70;;
77117;SDS011;66072;50.238;19.228;2023-03-05T07:53:45;14.00;;;6.00;;
77117;SDS011;66072;50.238;19.228;2023-03-05T07:56:22;15.00;;;6.40;;
77117;SDS011;66072;50.238;19.228;2023-03-05T07:58:51;14.10;;;7.00;;
77117;SDS011;66072;50.238;19.228;2023-03-05T08:01:19;13.20;;;7.10;;
77117;SDS011;66072;50.238;19.228;2023-03-05T08:03:47;13.30;;;7.90;;
77117;SDS011;66072;50.238;19.228;2023-03-05T08:06:14;16.60;;;8.10;;
77117;SDS011;66072;50.238;19.228;2023-03-05T08:08:42;13.50;;;8.20;;
77117;SDS011;66072;50.238;19.228;2023-03-05T08:11:11;17.30;;;8.90;;
77117;SDS011;66072;50.238;19.228;2023-03-05T08:13:41;12.50;;;7.90;;
77117;SDS011;66072;50.238;19.228;2023-03-05T08:16:10;21.00;;;11.30;;
77117;SDS011;66072;50.238;19.228;2023-03-05T08:18:44;20.10;;;10.40;;
77117;SDS011;66072;50.238;19.228;2023-03-05T08:21:16;15.30;;;8.20;;
77117;SDS011;66072;50.238;19.228;2023-03-05T08:23:48;13.70;;;7.70;;
77117;SDS011;66072;50.238;19.228;2023-03-05T08:26:16;18.00;;;9.10;;
77117;SDS011;66072;50.238;19.228;2023-03-05T08:28:47;16.00;;;7.90;;
77117;SDS011;66072;50.238;19.228;2023-03-05T08:31:16;18.70;;;10.40;;
77117;SDS011;66072;50.238;19.228;2023-03-05T08:33:45;12.90;;;6.90;;
77117;SDS011;66072;50.238;19.228;2023-03-05T08:36:14;16.50;;;8.10;;
77117;SDS011;66072;50.238;19.228;2023-03-05T08:38:41;12.70;;;7.80;;
77117;SDS011;66072;50.238;19.228;2023-03-05T08:41:09;16.50;;;8.90;;
77117;SDS011;66072;50.238;19.228;2023-03-05T08:43:37;19.10;;;8.80;;
77117;SDS011;66072;50.238;19.228;2023-03-05T08:46:05;13.00;;;7.90;;
77117;SDS011;66072;50.238;19.228;2023-03-05T08:48:33;17.20;;;7.80;;
77117;SDS011;66072;50.238;19.228;2023-03-05T08:51:04;13.00;;;6.40;;
77117;SDS011;66072;50.238;19.228;2023-03-05T08:53:34;15.90;;;7.40;;
77117;SDS011;66072;50.238;19.228;2023-03-05T08:56:01;15.40;;;9.60;;
77117;SDS011;66072;50.238;19.228;2023-03-05T08:58:29;9.60;;;5.80;;
77117;SDS011;66072;50.238;19.228;2023-03-05T09:00:57;19.20;;;10.70;;
77117;SDS011;66072;50.238;19.228;2023-03-05T09:03:24;14.90;;;8.70;;
77117;SDS011;66072;50.238;19.228;2023-03-05T09:05:52;20.30;;;11.10;;
77117;SDS011;66072;50.238;19.228;2023-03-05T09:08:20;21.10;;;11.50;;
77117;SDS011;66072;50.238;19.228;2023-03-05T09:10:47;15.30;;;9.00;;
77117;SDS011;66072;50.238;19.228;2023-03-05T09:13:15;20.90;;;11.40;;
77117;SDS011;66072;50.238;19.228;2023-03-05T09:15:42;18.10;;;11.00;;
77117;SDS011;66072;50.238;19.228;2023-03-05T09:18:10;24.00;;;12.40;;
77117;SDS011;66072;50.238;19.228;2023-03-05T09:20:38;21.00;;;12.90;;
77117;SDS011;66072;50.238;19.228;2023-03-05T09:23:05;14.50;;;8.80;;
77117;SDS011;66072;50.238;19.228;2023-03-05T09:25:33;14.40;;;9.20;;
77117;SDS011;66072;50.238;19.228;2023-03-05T09:28:00;28.20;;;12.20;;
77117;SDS011;66072;50.238;19.228;2023-03-05T09:30:28;18.40;;;9.50;;
77117;SDS011;66072;50.238;19.228;2023-03-05T09:32:56;19.50;;;9.90;;
77117;SDS011;66072;50.238;19.228;2023-03-05T09:35:23;22.40;;;12.30;;
77117;SDS011;66072;50.238;19.228;2023-03-05T09:37:51;19.50;;;10.90;;
77117;SDS011;66072;50.238;19.228;2023-03-05T09:40:19;17.60;;;9.60;;
77117;SDS011;66072;50.238;19.228;2023-03-05T09:48:05;15.60;;;9.20;;
77117;SDS011;66072;50.238;19.228;2023-03-05T09:50:39;17.30;;;10.10;;
77117;SDS011;66072;50.238;19.228;2023-03-05T09:53:34;21.10;;;12.00;;
77117;SDS011;66072;50.238;19.228;2023-03-05T09:56:10;17.30;;;9.80;;
77117;SDS011;66072;50.238;19.228;2023-03-05T10:03:43;17.40;;;9.90;;
77117;SDS011;66072;50.238;19.228;2023-03-05T10:09:01;21.30;;;13.60;;
77117;SDS011;66072;50.238;19.228;2023-03-05T10:11:52;17.30;;;9.70;;
77117;SDS011;66072;50.238;19.228;2023-03-05T10:14:29;24.40;;;13.80;;
77117;SDS011;66072;50.238;19.228;2023-03-05T10:22:38;14.50;;;8.90;;
77117;SDS011;66072;50.238;19.228;2023-03-05T10:30:32;26.40;;;14.50;;
77117;SDS011;66072;50.238;19.228;2023-03-05T10:33:21;24.70;;;14.90;;
77117;SDS011;66072;50.238;19.228;2023-03-05T10:44:44;32.40;;;18.40;;
77117;SDS011;66072;50.238;19.228;2023-03-05T10:47:35;30.60;;;18.00;;
77117;SDS011;66072;50.238;19.228;2023-03-05T10:50:26;26.10;;;15.90;;
77117;SDS011;66072;50.238;19.228;2023-03-05T10:56:04;27.40;;;14.40;;
77117;SDS011;66072;50.238;19.228;2023-03-05T10:58:33;19.90;;;11.10;;
77117;SDS011;66072;50.238;19.228;2023-03-05T11:01:02;21.80;;;11.90;;
77117;SDS011;66072;50.238;19.228;2023-03-05T11:03:46;22.10;;;11.40;;
77117;SDS011;66072;50.238;19.228;2023-03-05T11:06:51;20.30;;;12.60;;
77117;SDS011;66072;50.238;19.228;2023-03-05T11:09:24;19.70;;;10.90;;
77117;SDS011;66072;50.238;19.228;2023-03-05T11:14:30;19.10;;;11.30;;
77117;SDS011;66072;50.238;19.228;2023-03-05T11:17:02;22.00;;;11.50;;
77117;SDS011;66072;50.238;19.228;2023-03-05T11:19:49;20.20;;;12.60;;
77117;SDS011;66072;50.238;19.228;2023-03-05T11:22:18;19.90;;;11.00;;
77117;SDS011;66072;50.238;19.228;2023-03-05T11:25:34;21.80;;;11.50;;
77117;SDS011;66072;50.238;19.228;2023-03-05T11:35:43;13.50;;;8.50;;
77117;SDS011;66072;50.238;19.228;2023-03-05T11:38:15;20.70;;;12.40;;
77117;SDS011;66072;50.238;19.228;2023-03-05T11:40:43;19.00;;;10.50;;
77117;SDS011;66072;50.238;19.228;2023-03-05T11:43:15;18.50;;;10.90;;
77117;SDS011;66072;50.238;19.228;2023-03-05T11:45:44;19.50;;;11.00;;
77117;SDS011;66072;50.238;19.228;2023-03-05T11:48:23;18.20;;;9.50;;
77117;SDS011;66072;50.238;19.228;2023-03-05T11:50:53;12.80;;;8.70;;
77117;SDS011;66072;50.238;19.228;2023-03-05T11:53:25;13.30;;;8.60;;
77117;SDS011;66072;50.238;19.228;2023-03-05T12:01:45;13.70;;;9.20;;
77117;SDS011;66072;50.238;19.228;2023-03-05T12:04:16;16.80;;;7.90;;
77117;SDS011;66072;50.238;19.228;2023-03-05T12:06:46;13.50;;;7.20;;
77117;SDS011;66072;50.238;19.228;2023-03-05T12:14:44;10.70;;;6.10;;
77117;SDS011;66072;50.238;19.228;2023-03-05T12:17:20;11.50;;;6.80;;
77117;SDS011;66072;50.238;19.228;2023-03-05T12:19:59;12.20;;;6.90;;
77117;SDS011;66072;50.238;19.228;2023-03-05T12:22:48;8.90;;;4.60;;
77117;SDS011;66072;50.238;19.228;2023-03-05T12:25:23;8.00;;;4.50;;
77117;SDS011;66072;50.238;19.228;2023-03-05T12:28:14;8.60;;;5.10;;
77117;SDS011;66072;50.238;19.228;2023-03-05T12:30:59;11.10;;;5.90;;
77117;SDS011;66072;50.238;19.228;2023-03-05T12:38:49;9.80;;;4.60;;
77117;SDS011;66072;50.238;19.228;2023-03-05T12:46:32;8.30;;;4.70;;
77117;SDS011;66072;50.238;19.228;2023-03-05T12:51:44;8.60;;;5.20;;
77117;SDS011;66072;50.238;19.228;2023-03-05T12:57:02;7.60;;;3.60;;
77117;SDS011;66072;50.238;19.228;2023-03-05T12:59:49;7.20;;;4.30;;
77117;SDS011;66072;50.238;19.228;2023-03-05T13:07:51;8.00;;;3.70;;
77117;SDS011;66072;50.238;19.228;2023-03-05T13:10:23;6.50;;;3.60;;
77117;SDS011;66072;50.238;19.228;2023-03-05T13:12:54;5.70;;;3.40;;
77117;SDS011;66072;50.238;19.228;2023-03-05T13:15:24;8.30;;;4.80;;
77117;SDS011;66072;50.238;19.228;2023-03-05T13:17:56;6.50;;;3.90;;
77117;SDS011;66072;50.238;19.228;2023-03-05T13:20:32;5.80;;;3.40;;
77117;SDS011;66072;50.238;19.228;2023-03-05T13:25:34;7.40;;;3.60;;
77117;SDS011;66072;50.238;19.228;2023-03-05T13:28:14;6.80;;;3.90;;
77117;SDS011;66072;50.238;19.228;2023-03-05T13:30:44;6.00;;;4.10;;
77117;SDS011;66072;50.238;19.228;2023-03-05T13:33:19;6.30;;;3.90;;
77117;SDS011;66072;50.238;19.228;2023-03-05T13:35:52;5.80;;;3.50;;
77117;SDS011;66072;50.238;19.228;2023-03-05T13:39:06;7.90;;;4.30;;
77117;SDS011;66072;50.238;19.228;2023-03-05T13:43:45;6.40;;;2.50;;
77117;SDS011;66072;50.238;19.228;2023-03-05T13:46:24;7.70;;;4.30;;
77117;SDS011;66072;50.238;19.228;2023-03-05T13:48:56;8.60;;;4.10;;
77117;SDS011;66072;50.238;19.228;2023-03-05T13:51:42;6.90;;;2.90;;
77117;SDS011;66072;50.238;19.228;2023-03-05T13:54:15;8.90;;;4.20;;
77117;SDS011;66072;50.238;19.228;2023-03-05T13:56:51;7.80;;;4.30;;
77117;SDS011;66072;50.238;19.228;2023-03-05T14:01:49;7.00;;;4.10;;
77117;SDS011;66072;50.238;19.228;2023-03-05T14:04:20;9.50;;;4.60;;
77117;SDS011;66072;50.238;19.228;2023-03-05T14:07:00;9.00;;;4.30;;
77117;SDS011;66072;50.238;19.228;2023-03-05T14:12:20;8.00;;;4.10;;
77117;SDS011;66072;50.238;19.228;2023-03-05T14:14:56;8.60;;;3.40;;
77117;SDS011;66072;50.238;19.228;2023-03-05T14:22:40;10.90;;;5.50;;
77117;SDS011;66072;50.238;19.228;2023-03-05T14:28:23;13.30;;;6.00;;
77117;SDS011;66072;50.238;19.228;2023-03-05T14:30:55;9.90;;;5.50;;
77117;SDS011;66072;50.238;19.228;2023-03-05T14:33:25;12.10;;;6.50;;
77117;SDS011;66072;50.238;19.228;2023-03-05T14:35:56;12.70;;;5.30;;
77117;SDS011;66072;50.238;19.228;2023-03-05T14:38:27;10.70;;;6.80;;
77117;SDS011;66072;50.238;19.228;2023-03-05T14:41:17;12.90;;;5.50;;
77117;SDS011;66072;50.238;19.228;2023-03-05T14:43:55;8.60;;;3.50;;
77117;SDS011;66072;50.238;19.228;2023-03-05T14:46:23;7.50;;;3.90;;
77117;SDS011;66072;50.238;19.228;2023-03-05T14:48:51;9.10;;;4.10;;
77117;SDS011;66072;50.238;19.228;2023-03-05T14:51:20;6.90;;;4.10;;
77117;SDS011;66072;50.238;19.228;2023-03-05T14:53:48;9.20;;;4.70;;
77117;SDS011;66072;50.238;19.228;2023-03-05T14:56:17;7.70;;;4.20;;
77117;SDS011;66072;50.238;19.228;2023-03-05T14:58:50;7.80;;;3.60;;
77117;SDS011;66072;50.238;19.228;2023-03-05T15:01:17;7.50;;;4.10;;
77117;SDS011;66072;50.238;19.228;2023-03-05T15:03:45;7.10;;;3.80;;
77117;SDS011;66072;50.238;19.228;2023-03-05T15:06:20;9.10;;;4.10;;
77117;SDS011;66072;50.238;19.228;2023-03-05T15:09:02;6.90;;;3.50;;
77117;SDS011;66072;50.238;19.228;2023-03-05T15:11:32;7.90;;;3.90;;
77117;SDS011;66072;50.238;19.228;2023-03-05T15:14:00;6.90;;;3.70;;
77117;SDS011;66072;50.238;19.228;2023-03-05T15:16:27;8.00;;;3.30;;
77117;SDS011;66072;50.238;19.228;2023-03-05T15:18:58;9.40;;;4.60;;
77117;SDS011;66072;50.238;19.228;2023-03-05T15:21:26;5.90;;;3.40;;
77117;SDS011;66072;50.238;19.228;2023-03-05T15:23:53;8.00;;;4.00;;
77117;SDS011;66072;50.238;19.228;2023-03-05T15:26:21;8.10;;;3.50;;
77117;SDS011;66072;50.238;19.228;2023-03-05T15:28:48;5.60;;;3.40;;
77117;SDS011;66072;50.238;19.228;2023-03-05T15:31:16;10.30;;;4.10;;
77117;SDS011;66072;50.238;19.228;2023-03-05T15:33:44;7.10;;;3.80;;
77117;SDS011;66072;50.238;19.228;2023-03-05T15:36:11;9.00;;;3.80;;
77117;SDS011;66072;50.238;19.228;2023-03-05T15:38:39;8.40;;;4.40;;
77117;SDS011;66072;50.238;19.228;2023-03-05T15:41:07;8.10;;;3.90;;
77117;SDS011;66072;50.238;19.228;2023-03-05T15:43:35;5.80;;;3.80;;
77117;SDS011;66072;50.238;19.228;2023-03-05T15:46:04;8.00;;;3.50;;
77117;SDS011;66072;50.238;19.228;2023-03-05T15:48:32;6.10;;;3.60;;
77117;SDS011;66072;50.238;19.228;2023-03-05T15:51:00;8.20;;;4.30;;
77117;SDS011;66072;50.238;19.228;2023-03-05T15:53:28;8.30;;;4.50;;
77117;SDS011;66072;50.238;19.228;2023-03-05T15:55:55;7.30;;;4.10;;
77117;SDS011;66072;50.238;19.228;2023-03-05T15:58:23;5.60;;;2.50;;
77117;SDS011;66072;50.238;19.228;2023-03-05T16:00:52;8.70;;;4.20;;
77117;SDS011;66072;50.238;19.228;2023-03-05T16:03:21;5.90;;;3.20;;
77117;SDS011;66072;50.238;19.228;2023-03-05T16:05:49;6.60;;;3.70;;
77117;SDS011;66072;50.238;19.228;2023-03-05T16:08:17;5.60;;;3.20;;
77117;SDS011;66072;50.238;19.228;2023-03-05T16:10:44;8.30;;;4.70;;
77117;SDS011;66072;50.238;19.228;2023-03-05T16:13:13;6.70;;;3.80;;
77117;SDS011;66072;50.238;19.228;2023-03-05T16:15:42;9.50;;;4.70;;
77117;SDS011;66072;50.238;19.228;2023-03-05T16:18:12;9.10;;;4.00;;
77117;SDS011;66072;50.238;19.228;2023-03-05T16:20:42;7.90;;;4.30;;
77117;SDS011;66072;50.238;19.228;2023-03-05T16:23:09;9.20;;;5.30;;
77117;SDS011;66072;50.238;19.228;2023-03-05T16:25:38;8.40;;;4.50;;
77117;SDS011;66072;50.238;19.228;2023-03-05T16:28:06;9.10;;;4.30;;
77117;SDS011;66072;50.238;19.228;2023-03-05T16:30:34;11.00;;;5.60;;